createdAt,value
2023-10-08T00:00:47.902Z,101321.47
2023-10-08T00:10:52.433Z,101351.00
2023-10-08T00:20:59.744Z,101350.88
2023-10-08T00:31:12.371Z,101346.47
2023-10-08T00:41:16.684Z,101347.91
2023-10-08T00:51:32.309Z,101341.16
2023-10-08T01:01:37.158Z,101347.91
2023-10-08T01:11:46.803Z,101348.41
2023-10-08T01:21:51.727Z,101257.03
2023-10-08T01:31:58.059Z,101348.44
2023-10-08T01:42:00.920Z,101349.69
2023-10-08T01:52:08.638Z,101336.34
2023-10-08T02:02:12.045Z,101322.25
2023-10-08T02:12:17.644Z,101359.72
2023-10-08T02:22:20.717Z,101361.03
2023-10-08T02:32:25.064Z,101360.53
2023-10-08T02:42:28.023Z,101361.69
2023-10-08T02:52:32.205Z,101379.94
2023-10-08T03:02:40.842Z,101391.94
2023-10-08T03:12:47.492Z,101366.47
2023-10-08T03:22:50.904Z,101361.31
2023-10-08T03:32:57.176Z,101372.47
2023-10-08T03:43:03.595Z,101374.00
2023-10-08T03:53:12.633Z,101399.81
2023-10-08T04:03:24.735Z,101406.03
2023-10-08T04:13:29.510Z,101381.06
2023-10-08T04:23:32.638Z,101395.81
2023-10-08T04:33:37.116Z,101377.66
2023-10-08T04:43:40.105Z,101372.47
2023-10-08T04:53:45.410Z,101401.63
2023-10-08T05:04:25.668Z,101406.13
2023-10-08T05:14:36.089Z,101409.88
2023-10-08T05:24:41.820Z,101441.41
2023-10-08T05:34:52.151Z,101402.41
2023-10-08T05:45:15.261Z,101387.56
2023-10-08T05:55:26.652Z,101439.88
2023-10-08T06:05:34.253Z,101437.69
2023-10-08T06:15:45.626Z,101486.06
2023-10-08T06:25:55.216Z,101493.81
2023-10-08T06:36:04.124Z,101494.50
2023-10-08T06:46:09.035Z,101488.09
2023-10-08T06:56:13.732Z,101457.31
2023-10-08T07:06:26.638Z,101468.81
2023-10-08T07:16:31.389Z,101492.56
2023-10-08T07:26:38.522Z,101479.41
2023-10-08T07:36:44.167Z,101481.88
2023-10-08T07:46:46.987Z,101473.63
2023-10-08T07:56:52.786Z,101488.03
2023-10-08T08:06:55.691Z,101504.25
2023-10-08T08:17:14.258Z,101517.50
2023-10-08T08:27:26.607Z,101525.19
2023-10-08T08:37:32.159Z,101503.44
2023-10-08T08:47:35.420Z,101509.94
2023-10-08T08:57:40.903Z,101522.56
2023-10-08T09:07:55.815Z,101516.25
2023-10-08T09:18:02.249Z,101495.69
2023-10-08T09:28:08.551Z,101529.81
2023-10-08T09:38:13.402Z,101525.78
2023-10-08T09:48:20.811Z,101534.66
2023-10-08T09:58:27.567Z,101570.25
2023-10-08T10:08:36.884Z,101572.44
2023-10-08T10:18:41.878Z,101588.22
2023-10-08T10:28:45.750Z,101560.41
2023-10-08T10:38:51.266Z,101590.94
2023-10-08T10:49:08.393Z,101588.44
2023-10-08T10:59:20.901Z,101584.72
2023-10-08T11:09:37.100Z,101579.19
2023-10-08T11:19:43.724Z,101572.34
2023-10-08T11:29:49.124Z,101555.31
2023-10-08T11:39:54.523Z,101532.34
2023-10-08T11:50:11.163Z,101535.09
2023-10-08T12:10:26.851Z,101517.25
2023-10-08T12:20:35.500Z,101511.38
2023-10-08T12:30:42.616Z,101524.84
2023-10-08T12:40:53.864Z,101521.84
2023-10-08T12:50:58.707Z,101513.97
2023-10-08T13:01:05.324Z,101506.47
2023-10-08T13:11:09.074Z,101522.53
2023-10-08T13:21:13.947Z,101482.50
2023-10-08T13:31:18.810Z,101475.06
2023-10-08T13:41:23.546Z,101353.47
2023-10-08T13:51:26.819Z,101436.03
2023-10-08T14:01:34.868Z,101446.94
2023-10-08T14:11:38.630Z,101444.38
2023-10-08T14:21:50.698Z,101415.06
2023-10-08T14:31:57.276Z,101391.97
2023-10-08T14:42:19.284Z,101405.25
2023-10-08T14:52:22.710Z,101399.16
2023-10-08T15:02:30.716Z,101394.97
2023-10-08T15:12:36.053Z,101389.88
2023-10-08T15:22:40.485Z,101404.78
2023-10-08T15:32:48.042Z,101404.94
2023-10-08T15:42:55.083Z,101405.25
2023-10-08T15:52:58.461Z,101401.38
2023-10-08T16:03:02.971Z,101393.94
2023-10-08T16:13:06.705Z,101372.69
2023-10-08T16:23:13.575Z,101367.41
2023-10-08T16:33:17.187Z,101351.09
2023-10-08T16:43:21.754Z,101356.25
2023-10-08T16:53:26.440Z,101368.78
2023-10-08T17:03:31.544Z,101370.88
2023-10-08T17:13:34.780Z,101379.03
2023-10-08T17:23:39.704Z,101367.44
2023-10-08T17:33:45.477Z,101366.34
2023-10-08T17:43:50.162Z,101359.88
2023-10-08T17:53:53.205Z,101343.84
2023-10-08T18:03:58.066Z,101341.78
2023-10-08T18:14:02.112Z,101330.38
2023-10-08T18:24:07.472Z,101337.50
2023-10-08T18:34:10.633Z,101316.56
2023-10-08T18:44:18.033Z,101320.31
2023-10-08T18:54:22.195Z,101322.53
2023-10-08T19:04:28.200Z,101303.81
2023-10-08T19:14:31.469Z,101306.31
2023-10-08T19:24:35.762Z,101300.84
2023-10-08T19:34:40.238Z,101299.16
2023-10-08T19:44:45.024Z,101288.97
2023-10-08T19:54:48.111Z,101299.84
2023-10-08T20:04:52.479Z,101280.59
2023-10-08T20:14:55.547Z,101291.44
2023-10-08T20:24:59.991Z,101271.84
2023-10-08T20:35:04.852Z,101267.06
2023-10-08T20:45:10.350Z,101276.78
2023-10-08T20:55:13.853Z,101263.44
2023-10-08T21:05:19.182Z,101018.88
2023-10-08T21:15:24.111Z,101128.34
2023-10-08T21:25:29.198Z,101063.53
2023-10-08T21:35:33.055Z,101038.00
2023-10-08T21:45:38.357Z,101250.47
2023-10-08T21:55:42.190Z,101204.88
2023-10-08T22:05:47.168Z,100876.19
2023-10-08T22:15:50.924Z,100943.63
2023-10-08T22:25:56.606Z,101059.53
2023-10-08T22:36:04.938Z,101035.63
2023-10-08T22:46:10.330Z,100972.66
2023-10-08T22:56:13.603Z,100807.22
2023-10-08T23:06:18.507Z,100796.69
2023-10-08T23:16:21.605Z,101001.41
2023-10-08T23:26:25.951Z,101027.09
2023-10-08T23:36:35.005Z,101021.16
2023-10-08T23:46:44.478Z,100815.94
2023-10-08T23:56:50.512Z,100801.78
